createdAt,value
2023-02-22T00:01:51.141Z,28.67
2023-02-22T00:04:21.350Z,28.27
2023-02-22T00:06:50.798Z,27.55
2023-02-22T00:09:20.777Z,27.45
2023-02-22T00:11:49.263Z,29.33
2023-02-22T00:14:20.401Z,27.33
2023-02-22T00:16:50.614Z,27.00
2023-02-22T00:19:19.046Z,30.27
2023-02-22T00:21:47.437Z,29.17
2023-02-22T00:24:23.817Z,30.02
2023-02-22T00:26:52.698Z,27.55
2023-02-22T00:29:20.480Z,27.15
2023-02-22T00:31:52.227Z,27.15
2023-02-22T00:34:20.173Z,27.60
2023-02-22T00:36:48.287Z,28.23
2023-02-22T00:39:16.188Z,27.33
2023-02-22T00:41:44.352Z,27.15
2023-02-22T00:44:12.690Z,26.90
2023-02-22T00:46:40.444Z,27.48
2023-02-22T00:49:09.580Z,25.55
2023-02-22T00:51:37.293Z,26.75
2023-02-22T00:54:05.376Z,28.10
2023-02-22T00:56:34.138Z,28.08
2023-02-22T00:59:02.214Z,27.52
2023-02-22T01:01:30.335Z,26.65
2023-02-22T01:03:58.174Z,26.55
2023-02-22T01:06:27.431Z,26.45
2023-02-22T01:08:55.224Z,26.35
2023-02-22T01:11:23.380Z,26.52
2023-02-22T01:13:54.114Z,27.75
2023-02-22T01:16:22.676Z,27.60
2023-02-22T01:18:50.620Z,28.23
2023-02-22T01:21:18.716Z,27.08
2023-02-22T01:23:48.443Z,26.35
2023-02-22T01:26:16.284Z,26.55
2023-02-22T01:28:44.051Z,27.10
2023-02-22T01:31:12.545Z,26.48
2023-02-22T01:33:41.449Z,27.17
2023-02-22T01:36:11.474Z,28.10
2023-02-22T01:38:39.494Z,29.45
2023-02-22T01:41:09.006Z,29.50
2023-02-22T01:43:36.743Z,26.60
2023-02-22T01:46:05.664Z,28.30
2023-02-22T01:48:40.116Z,31.05
2023-02-22T01:51:12.454Z,27.55
2023-02-22T01:53:47.327Z,27.90
2023-02-22T01:56:17.161Z,27.80
2023-02-22T01:58:50.201Z,28.83
2023-02-22T02:01:20.863Z,21.77
2023-02-22T02:03:49.369Z,29.80
2023-02-22T02:06:18.012Z,29.08
2023-02-22T02:08:53.959Z,31.00
2023-02-22T02:11:25.775Z,30.45
2023-02-22T02:13:56.059Z,31.15
2023-02-22T02:16:25.703Z,31.60
2023-02-22T02:18:54.324Z,32.35
2023-02-22T02:22:06.504Z,32.45
2023-02-22T02:25:00.230Z,31.00
2023-02-22T02:27:40.294Z,33.40
2023-02-22T02:30:43.623Z,32.90
2023-02-22T02:33:21.939Z,33.35
2023-02-22T02:35:57.542Z,34.50
2023-02-22T02:38:35.249Z,34.33
2023-02-22T02:41:11.826Z,35.58
2023-02-22T02:43:46.937Z,35.58
2023-02-22T02:46:19.444Z,35.08
2023-02-22T02:48:54.806Z,35.72
2023-02-22T02:51:24.074Z,35.00
2023-02-22T02:53:53.567Z,37.38
2023-02-22T02:56:23.376Z,37.20
2023-02-22T02:58:53.306Z,35.38
2023-02-22T03:01:42.987Z,37.42
2023-02-22T03:04:28.491Z,36.15
2023-02-22T03:07:12.063Z,36.17
2023-02-22T03:09:49.388Z,36.92
2023-02-22T03:12:29.073Z,37.05
2023-02-22T03:15:08.338Z,35.60
2023-02-22T03:17:44.327Z,35.50
2023-02-22T03:20:21.966Z,36.05
2023-02-22T03:22:56.326Z,34.28
2023-02-22T03:25:29.119Z,33.97
2023-02-22T03:28:02.343Z,35.22
2023-02-22T03:30:36.882Z,36.53
2023-02-22T03:33:10.549Z,35.42
2023-02-22T03:35:44.642Z,35.33
2023-02-22T03:38:14.454Z,37.05
2023-02-22T03:40:46.334Z,34.83
2023-02-22T03:43:17.683Z,36.97
2023-02-22T03:45:48.216Z,36.00
2023-02-22T03:48:21.424Z,35.42
2023-02-22T03:50:51.963Z,37.20
2023-02-22T03:53:23.118Z,34.65
2023-02-22T03:55:52.801Z,35.55
2023-02-22T03:58:23.924Z,34.47
2023-02-22T04:00:53.096Z,36.08
2023-02-22T04:03:21.502Z,34.40
2023-02-22T04:05:50.875Z,33.83
2023-02-22T04:08:18.725Z,33.67
2023-02-22T04:10:46.735Z,35.72
2023-02-22T04:13:14.684Z,39.33
2023-02-22T04:15:42.526Z,37.60
2023-02-22T04:18:10.275Z,38.38
2023-02-22T04:20:38.012Z,35.13
2023-02-22T04:23:07.471Z,35.92
2023-02-22T04:25:35.235Z,34.72
2023-02-22T04:28:04.001Z,30.67
2023-02-22T04:30:31.950Z,30.38
2023-02-22T04:32:59.815Z,28.00
2023-02-22T04:35:27.663Z,30.52
2023-02-22T04:37:55.417Z,28.73
2023-02-22T04:40:24.672Z,27.88
2023-02-22T04:42:52.390Z,32.95
2023-02-22T04:45:20.417Z,27.42
2023-02-22T04:47:48.290Z,31.98
2023-02-22T04:50:17.260Z,29.67
2023-02-22T04:52:45.668Z,30.40
2023-02-22T04:55:13.435Z,30.52
2023-02-22T04:57:42.558Z,28.75
2023-02-22T05:00:11.436Z,29.40
2023-02-22T05:02:40.031Z,28.95
2023-02-22T05:05:08.483Z,29.63
2023-02-22T05:07:36.255Z,29.85
2023-02-22T05:10:04.114Z,28.02
2023-02-22T05:12:31.818Z,26.73
2023-02-22T05:15:00.919Z,33.42
2023-02-22T05:17:28.723Z,26.27
2023-02-22T05:19:56.540Z,25.40
2023-02-22T05:22:24.520Z,27.00
2023-02-22T05:24:52.958Z,27.48
2023-02-22T05:27:21.853Z,25.52
2023-02-22T05:29:49.826Z,26.90
2023-02-22T05:32:19.004Z,25.33
2023-02-22T05:34:46.799Z,24.55
2023-02-22T05:37:14.564Z,24.67
2023-02-22T05:39:42.299Z,24.02
2023-02-22T05:42:10.035Z,22.52
2023-02-22T05:44:37.794Z,21.67
2023-02-22T05:47:05.628Z,19.73
2023-02-22T05:49:34.763Z,21.92
2023-02-22T05:52:02.538Z,21.80
2023-02-22T05:54:30.282Z,23.05
2023-02-22T05:56:58.036Z,23.08
2023-02-22T05:59:25.778Z,22.33
2023-02-22T06:01:53.538Z,22.27
2023-02-22T06:04:21.316Z,25.92
2023-02-22T06:06:50.410Z,25.02
2023-02-22T06:09:18.276Z,23.92
2023-02-22T06:11:46.031Z,23.77
2023-02-22T06:14:13.783Z,23.80
2023-02-22T06:16:41.618Z,24.00
2023-02-22T06:19:09.455Z,24.33
2023-02-22T06:21:37.195Z,25.88
2023-02-22T06:24:07.031Z,25.08
2023-02-22T06:26:34.779Z,26.15
2023-02-22T06:29:02.529Z,25.50
2023-02-22T06:31:31.804Z,25.70
2023-02-22T06:33:59.525Z,25.58
2023-02-22T06:36:27.249Z,26.05
2023-02-22T06:38:55.087Z,27.50
2023-02-22T06:41:24.555Z,25.42
2023-02-22T06:43:52.298Z,25.95
2023-02-22T06:46:21.187Z,25.27
2023-02-22T06:48:50.058Z,26.02
2023-02-22T06:51:18.074Z,27.67
2023-02-22T06:53:46.056Z,26.10
2023-02-22T06:56:13.872Z,28.98
2023-02-22T06:58:42.979Z,26.80
2023-02-22T07:01:10.879Z,26.73
2023-02-22T07:03:38.783Z,26.52
2023-02-22T07:06:08.154Z,25.20
2023-02-22T07:08:35.892Z,29.35
2023-02-22T07:11:03.668Z,25.77
2023-02-22T07:13:31.422Z,26.63
2023-02-22T07:16:00.629Z,24.48
2023-02-22T07:18:30.010Z,25.23
2023-02-22T07:20:58.697Z,24.98
2023-02-22T07:23:27.082Z,25.48
2023-02-22T07:25:54.827Z,26.35
2023-02-22T07:28:22.613Z,24.33
2023-02-22T07:30:50.329Z,25.35
2023-02-22T07:33:19.499Z,26.15
2023-02-22T07:35:49.708Z,24.95
2023-02-22T07:38:18.860Z,25.60
2023-02-22T07:40:46.969Z,25.92
2023-02-22T07:43:17.773Z,23.52
2023-02-22T07:45:46.354Z,22.00
2023-02-22T07:48:17.407Z,24.88
2023-02-22T07:50:47.405Z,24.90
2023-02-22T07:53:18.717Z,22.17
2023-02-22T07:55:46.565Z,24.02
2023-02-22T07:58:16.413Z,22.73
2023-02-22T08:00:45.029Z,22.48
2023-02-22T08:03:14.588Z,23.75
2023-02-22T08:05:43.881Z,23.10
2023-02-22T08:08:14.682Z,24.50
2023-02-22T08:10:43.239Z,22.63
2023-02-22T08:13:11.114Z,22.17
2023-02-22T08:15:40.242Z,22.50
2023-02-22T08:18:10.135Z,21.23
2023-02-22T08:20:39.376Z,22.27
2023-02-22T08:23:07.880Z,22.23
2023-02-22T08:25:37.371Z,21.50
2023-02-22T08:28:06.978Z,23.80
2023-02-22T08:30:38.315Z,25.48
2023-02-22T08:33:08.038Z,22.73
2023-02-22T08:35:35.881Z,22.10
2023-02-22T08:38:06.009Z,24.17
2023-02-22T08:40:35.792Z,24.10
2023-02-22T08:43:06.615Z,26.52
2023-02-22T08:45:34.508Z,24.60
2023-02-22T08:48:02.278Z,25.35
2023-02-22T08:50:33.622Z,26.65
2023-02-22T08:53:03.175Z,26.55
2023-02-22T08:55:33.296Z,27.42
2023-02-22T08:58:03.060Z,27.08
2023-02-22T09:00:34.083Z,26.52
2023-02-22T09:03:02.626Z,25.92
2023-02-22T09:05:31.603Z,26.20
2023-02-22T09:08:00.093Z,27.10
2023-02-22T09:10:29.934Z,25.13
2023-02-22T09:12:58.336Z,24.50
2023-02-22T09:15:27.007Z,23.90
2023-02-22T09:17:56.757Z,24.88
2023-02-22T09:20:26.050Z,23.00
2023-02-22T09:22:54.709Z,23.23
2023-02-22T09:25:23.333Z,22.63
2023-02-22T09:27:52.844Z,22.35
2023-02-22T09:30:24.770Z,22.70
2023-02-22T09:32:54.783Z,22.30
2023-02-22T09:35:27.142Z,23.17
2023-02-22T09:37:56.383Z,23.00
2023-02-22T09:40:30.034Z,21.90
2023-02-22T09:45:36.927Z,20.90
2023-02-22T09:50:53.814Z,22.13
2023-02-22T09:53:29.671Z,21.50
2023-02-22T09:56:01.714Z,21.52
2023-02-22T09:58:33.681Z,21.58
2023-02-22T10:01:17.663Z,21.45
2023-02-22T10:03:52.115Z,23.60
2023-02-22T10:06:25.529Z,23.17
2023-02-22T10:08:58.386Z,22.48
2023-02-22T10:11:41.318Z,22.40
2023-02-22T10:14:31.035Z,21.40
2023-02-22T10:17:04.343Z,22.45
2023-02-22T10:19:44.242Z,22.15
2023-02-22T10:22:31.371Z,20.73
2023-02-22T10:25:02.268Z,21.83
2023-02-22T10:27:34.254Z,20.65
2023-02-22T10:30:22.373Z,21.23
2023-02-22T10:32:56.480Z,22.80
2023-02-22T10:35:26.209Z,27.02
2023-02-22T10:38:00.745Z,20.95
2023-02-22T10:40:33.093Z,23.17
2023-02-22T10:43:06.172Z,21.88
2023-02-22T10:45:37.207Z,20.67
2023-02-22T10:48:11.588Z,21.00
2023-02-22T10:50:41.541Z,22.30
2023-02-22T10:53:12.050Z,22.20
2023-02-22T10:56:13.783Z,21.10
2023-02-22T10:58:48.293Z,20.23
2023-02-22T11:01:26.179Z,20.13
2023-02-22T11:04:02.552Z,21.55
2023-02-22T11:06:30.869Z,28.02
2023-02-22T11:09:18.984Z,20.70
2023-02-22T11:11:48.678Z,18.77
2023-02-22T11:14:28.032Z,19.38
2023-02-22T11:16:57.727Z,19.45
2023-02-22T11:19:27.637Z,19.58
2023-02-22T11:21:58.279Z,19.30
2023-02-22T11:24:37.287Z,19.88
2023-02-22T11:27:25.147Z,18.73
2023-02-22T11:29:53.704Z,18.58
2023-02-22T11:32:22.470Z,19.67
2023-02-22T11:35:03.549Z,18.75
2023-02-22T11:37:38.023Z,17.33
2023-02-22T11:40:17.767Z,17.23
2023-02-22T11:42:46.100Z,17.20
2023-02-22T11:45:20.719Z,17.60
2023-02-22T11:47:53.870Z,18.33
2023-02-22T11:50:32.933Z,17.33
2023-02-22T11:53:22.481Z,18.80
2023-02-22T11:56:04.593Z,18.33
2023-02-22T11:58:42.869Z,18.40
2023-02-22T12:01:20.957Z,19.67
2023-02-22T12:04:17.014Z,16.23
2023-02-22T12:06:52.912Z,18.63
2023-02-22T12:09:28.030Z,19.08
2023-02-22T12:12:10.517Z,16.40
2023-02-22T12:14:45.248Z,16.45
2023-02-22T12:17:25.508Z,16.65
2023-02-22T12:19:58.780Z,17.60
2023-02-22T12:22:34.166Z,16.33
2023-02-22T12:25:09.715Z,16.52
2023-02-22T12:27:45.245Z,15.50
2023-02-22T12:30:20.716Z,15.88
2023-02-22T12:32:52.054Z,15.40
2023-02-22T12:35:22.956Z,15.95
2023-02-22T12:38:01.728Z,16.30
2023-02-22T12:40:36.728Z,16.15
2023-02-22T12:43:16.677Z,16.05
2023-02-22T12:45:50.325Z,17.17
2023-02-22T12:48:27.356Z,15.13
2023-02-22T12:50:59.372Z,15.00
2023-02-22T12:53:31.589Z,15.77
2023-02-22T12:56:05.844Z,14.68
2023-02-22T12:58:46.691Z,15.98
2023-02-22T13:01:20.297Z,17.77
2023-02-22T13:06:36.735Z,15.70
2023-02-22T13:09:24.394Z,15.52
2023-02-22T13:12:02.576Z,18.95
2023-02-22T13:14:45.842Z,16.70
2023-02-22T13:17:21.277Z,17.47
2023-02-22T13:19:59.029Z,15.93
2023-02-22T13:22:35.157Z,16.00
2023-02-22T13:25:11.217Z,16.55
2023-02-22T13:27:43.916Z,15.80
2023-02-22T13:30:23.052Z,16.30
2023-02-22T13:33:01.946Z,16.45
2023-02-22T13:35:59.177Z,17.20
2023-02-22T13:39:13.021Z,17.77
2023-02-22T13:41:51.900Z,19.70
2023-02-22T13:44:52.475Z,18.77
2023-02-22T13:47:49.785Z,18.67
2023-02-22T13:50:42.608Z,18.38
2023-02-22T13:53:15.616Z,16.73
2023-02-22T13:55:49.446Z,22.15
2023-02-22T14:00:51.159Z,19.35
2023-02-22T14:03:36.185Z,17.63
2023-02-22T14:06:06.342Z,18.08
2023-02-22T14:08:46.666Z,19.05
2023-02-22T14:11:45.424Z,19.10
2023-02-22T14:14:17.251Z,18.65
2023-02-22T14:16:45.527Z,20.98
2023-02-22T14:19:23.495Z,20.75
2023-02-22T14:22:02.089Z,25.90
2023-02-22T14:24:35.090Z,18.48
2023-02-22T14:27:05.089Z,19.83
2023-02-22T14:29:33.170Z,18.40
2023-02-22T14:32:07.526Z,17.77
2023-02-22T14:34:46.620Z,17.85
2023-02-22T14:37:19.047Z,17.10
2023-02-22T14:39:51.195Z,17.20
2023-02-22T14:42:24.996Z,18.67
2023-02-22T14:45:00.520Z,19.45
2023-02-22T14:47:40.370Z,18.23
2023-02-22T14:50:16.163Z,18.48
2023-02-22T14:52:47.481Z,19.20
2023-02-22T14:55:21.435Z,20.80
2023-02-22T14:58:01.358Z,20.85
2023-02-22T15:00:38.522Z,20.40
2023-02-22T15:03:06.331Z,18.23
2023-02-22T15:05:39.291Z,19.05
2023-02-22T15:08:09.215Z,18.90
2023-02-22T15:10:43.824Z,21.33
2023-02-22T15:13:20.461Z,23.10
2023-02-22T15:15:49.940Z,20.60
2023-02-22T15:18:25.248Z,20.48
2023-02-22T15:20:59.455Z,21.58
2023-02-22T15:23:30.789Z,22.10
2023-02-22T15:25:59.171Z,23.25
2023-02-22T15:28:30.948Z,23.83
2023-02-22T15:31:24.952Z,23.30
2023-02-22T15:33:54.770Z,22.92
2023-02-22T15:36:28.619Z,24.30
2023-02-22T15:41:29.078Z,25.30
2023-02-22T15:44:08.076Z,27.88
2023-02-22T15:46:42.063Z,28.42
2023-02-22T15:49:23.234Z,29.02
2023-02-22T15:52:04.480Z,26.65
2023-02-22T15:54:40.899Z,28.33
2023-02-22T15:57:09.406Z,28.27
2023-02-22T15:59:44.985Z,38.65
2023-02-22T16:02:32.388Z,32.67
2023-02-22T16:05:03.899Z,33.72
2023-02-22T16:07:33.646Z,33.67
2023-02-22T16:10:08.956Z,33.35
2023-02-22T16:12:37.276Z,35.55
2023-02-22T16:15:16.644Z,35.75
2023-02-22T16:18:01.076Z,35.85
2023-02-22T16:20:36.589Z,38.17
2023-02-22T16:23:27.215Z,39.63
2023-02-22T16:26:07.145Z,40.67
2023-02-22T16:28:35.965Z,43.10
2023-02-22T16:31:04.756Z,40.78
2023-02-22T16:33:33.923Z,43.72
2023-02-22T16:36:08.159Z,47.38
2023-02-22T16:38:39.200Z,46.10
2023-02-22T16:41:08.179Z,49.70
2023-02-22T16:43:36.812Z,50.47
2023-02-22T16:46:06.900Z,46.53
2023-02-22T16:48:38.176Z,49.40
2023-02-22T16:51:14.959Z,47.63
2023-02-22T16:53:44.612Z,45.35
2023-02-22T16:56:16.304Z,43.38
2023-02-22T16:58:47.215Z,45.42
2023-02-22T17:01:15.014Z,46.03
2023-02-22T17:03:42.964Z,48.47
2023-02-22T17:06:11.525Z,48.58
2023-02-22T17:08:40.207Z,46.55
2023-02-22T17:11:11.846Z,47.90
2023-02-22T17:13:41.543Z,46.53
2023-02-22T17:16:14.725Z,45.00
2023-02-22T17:18:42.758Z,46.70
2023-02-22T17:21:12.304Z,44.15
2023-02-22T17:23:40.103Z,50.80
2023-02-22T17:26:09.267Z,49.10
2023-02-22T17:28:37.101Z,45.63
2023-02-22T17:31:05.199Z,47.42
2023-02-22T17:33:36.657Z,45.83
2023-02-22T17:36:06.293Z,47.17
2023-02-22T17:38:34.804Z,44.72
2023-02-22T17:41:03.225Z,44.70
2023-02-22T17:43:32.405Z,45.40
2023-02-22T17:46:00.333Z,45.38
2023-02-22T17:48:28.732Z,45.33
2023-02-22T17:50:56.466Z,45.20
2023-02-22T17:53:25.471Z,42.63
2023-02-22T17:55:53.479Z,43.70
2023-02-22T17:58:22.344Z,44.88
2023-02-22T18:00:51.862Z,42.75
2023-02-22T18:03:25.464Z,43.10
2023-02-22T18:06:01.398Z,40.80
2023-02-22T18:08:31.144Z,40.97
2023-02-22T18:11:02.037Z,41.08
2023-02-22T18:13:30.129Z,55.88
2023-02-22T18:16:00.619Z,42.45
2023-02-22T18:18:28.962Z,41.63
2023-02-22T18:20:59.851Z,42.50
2023-02-22T18:23:29.699Z,38.65
2023-02-22T18:26:10.083Z,39.25
2023-02-22T18:28:38.748Z,38.83
2023-02-22T18:31:09.816Z,39.58
2023-02-22T18:33:38.097Z,39.60
2023-02-22T18:36:06.947Z,40.90
2023-02-22T18:38:34.735Z,38.97
2023-02-22T18:41:03.961Z,41.92
2023-02-22T18:43:34.390Z,39.80
2023-02-22T18:46:11.678Z,41.13
2023-02-22T18:48:39.928Z,37.22
2023-02-22T18:51:09.821Z,38.35
2023-02-22T18:53:38.614Z,38.85
2023-02-22T18:56:08.374Z,36.67
2023-02-22T18:58:38.849Z,38.38
2023-02-22T19:01:08.021Z,36.80
2023-02-22T19:03:38.427Z,39.08
2023-02-22T19:06:09.157Z,40.78
2023-02-22T19:08:39.644Z,39.40
2023-02-22T19:11:09.319Z,40.10
2023-02-22T19:13:37.580Z,36.90
2023-02-22T19:16:07.253Z,42.47
2023-02-22T19:18:35.383Z,40.40
2023-02-22T19:21:09.598Z,39.35
2023-02-22T19:23:39.509Z,37.83
2023-02-22T19:26:09.364Z,39.70
2023-02-22T19:28:37.196Z,42.33
2023-02-22T19:31:13.492Z,42.38
2023-02-22T19:33:41.584Z,40.15
2023-02-22T19:36:12.385Z,41.20
2023-02-22T19:38:40.666Z,41.80
2023-02-22T19:41:10.828Z,42.42
2023-02-22T19:43:38.782Z,42.60
2023-02-22T19:46:07.654Z,44.63
2023-02-22T19:48:36.018Z,43.65
2023-02-22T19:51:06.234Z,43.90
2023-02-22T19:53:35.914Z,44.17
2023-02-22T19:56:09.545Z,43.28
2023-02-22T19:58:37.876Z,44.72
2023-02-22T20:01:16.016Z,44.33
2023-02-22T20:03:44.156Z,44.60
2023-02-22T20:06:16.261Z,43.63
2023-02-22T20:08:45.561Z,43.58
2023-02-22T20:11:14.314Z,44.65
2023-02-22T20:13:43.656Z,45.60
2023-02-22T20:16:15.619Z,44.35
2023-02-22T20:18:43.655Z,48.15
2023-02-22T20:21:15.185Z,51.50
2023-02-22T20:23:44.420Z,49.85
2023-02-22T20:26:18.463Z,50.63
2023-02-22T20:28:46.935Z,45.70
2023-02-22T20:31:16.316Z,46.75
2023-02-22T20:33:45.671Z,45.13
2023-02-22T20:36:15.375Z,46.72
2023-02-22T20:38:43.806Z,45.00
2023-02-22T20:41:17.234Z,47.50
2023-02-22T20:43:45.217Z,48.33
2023-02-22T20:46:13.154Z,46.95
2023-02-22T20:48:41.031Z,44.72
2023-02-22T20:51:10.102Z,48.70
2023-02-22T20:53:41.743Z,47.83
2023-02-22T20:56:13.794Z,46.33
2023-02-22T20:58:43.835Z,47.45
2023-02-22T21:01:13.907Z,46.78
2023-02-22T21:03:42.906Z,48.92
2023-02-22T21:06:11.934Z,45.92
2023-02-22T21:08:40.110Z,49.47
2023-02-22T21:11:11.859Z,47.90
2023-02-22T21:13:39.826Z,48.28
2023-02-22T21:16:11.305Z,46.70
2023-02-22T21:18:39.153Z,47.40
2023-02-22T21:21:10.373Z,48.10
2023-02-22T21:23:38.546Z,47.28
2023-02-22T21:26:07.311Z,46.35
2023-02-22T21:28:50.417Z,48.30
2023-02-22T21:31:22.321Z,49.42
2023-02-22T21:33:51.778Z,48.67
2023-02-22T21:36:19.880Z,49.10
2023-02-22T21:38:53.245Z,49.60
2023-02-22T21:41:22.124Z,48.85
2023-02-22T21:43:51.436Z,49.80
2023-02-22T21:46:20.875Z,49.70
2023-02-22T21:48:49.377Z,46.92
2023-02-22T21:51:19.878Z,50.78
2023-02-22T21:53:49.554Z,56.35
2023-02-22T21:56:19.641Z,53.40
2023-02-22T21:58:50.149Z,49.05
2023-02-22T22:01:18.358Z,49.33
2023-02-22T22:03:48.061Z,52.75
2023-02-22T22:06:15.846Z,48.78
2023-02-22T22:08:46.336Z,48.88
2023-02-22T22:11:17.953Z,47.42
2023-02-22T22:13:46.328Z,46.15
2023-02-22T22:16:16.439Z,44.90
2023-02-22T22:18:45.947Z,48.35
2023-02-22T22:21:18.050Z,50.00
2023-02-22T22:23:47.532Z,47.47
2023-02-22T22:26:16.895Z,49.72
2023-02-22T22:28:46.264Z,47.40
2023-02-22T22:31:15.729Z,48.20
2023-02-22T22:33:45.360Z,46.10
2023-02-22T22:36:16.679Z,48.28
2023-02-22T22:38:47.181Z,46.08
2023-02-22T22:41:17.103Z,46.05
2023-02-22T22:43:46.188Z,47.33
2023-02-22T22:46:15.165Z,46.75
2023-02-22T22:48:43.503Z,48.45
2023-02-22T22:51:14.483Z,46.80
2023-02-22T22:53:45.601Z,46.92
2023-02-22T22:56:16.313Z,49.33
2023-02-22T22:58:47.727Z,50.70
2023-02-22T23:01:19.733Z,49.55
2023-02-22T23:03:55.092Z,49.13
2023-02-22T23:06:25.939Z,50.83
2023-02-22T23:09:10.259Z,52.78
2023-02-22T23:11:44.570Z,54.63
2023-02-22T23:14:14.877Z,52.58
2023-02-22T23:16:43.044Z,49.33
2023-02-22T23:19:11.021Z,48.88
2023-02-22T23:21:39.480Z,48.90
2023-02-22T23:24:08.938Z,48.65
2023-02-22T23:26:36.912Z,49.63
2023-02-22T23:29:05.478Z,49.47
2023-02-22T23:31:33.402Z,49.03
2023-02-22T23:34:06.658Z,48.38
2023-02-22T23:36:34.630Z,46.90
2023-02-22T23:39:02.387Z,49.78
2023-02-22T23:41:31.540Z,49.70
2023-02-22T23:44:00.067Z,52.50
2023-02-22T23:46:32.712Z,46.92
2023-02-22T23:49:02.649Z,47.13
2023-02-22T23:51:39.216Z,47.53
2023-02-22T23:54:09.122Z,48.40
2023-02-22T23:56:40.317Z,46.55
2023-02-22T23:59:11.248Z,47.58
